Time;durP1;ratioP1;P1;durP2;ratioP2;P2;SDS_P1;SDS_P2;PMS_P1;PMS_P2;Temp;Humidity;BMP_temperature;BMP_pressure;BME280_temperature;BME280_humidity;BME280_pressure;Samples;Min_cycle;Max_cycle;Signal;HPM_P1;HPM_P2
2022/09/22 00:02:33;;;;;;;;;;;;;;;8.75;77.68;101576.38;4996778;28;19971;-76
2022/09/22 00:05:37;;;;;;;;;;;;;;;8.81;77.32;101578.81;4996451;28;19920;-76
2022/09/22 00:08:41;;;;;;;;;;;;;;;8.89;77.33;101581.19;4996271;28;20079;-76
2022/09/22 00:11:47;;;;;;;;;;;;;;;8.70;77.21;101586.06;4984088;28;19919;-76
2022/09/22 00:14:52;;;;;;;;;;;;;;;8.66;77.76;101589.66;4996854;28;19976;-76
2022/09/22 00:17:55;;;;;;;;;;;;;;;8.64;77.84;101588.84;4996454;28;20380;-76
2022/09/22 00:21:04;;;;;;;;;;;;;;;8.68;77.54;101584.38;4996423;28;20352;-76
2022/09/22 00:24:08;;;;;;;;;;;;;;;8.66;77.86;101586.22;4996213;28;19920;-76
2022/09/22 00:27:11;;;;;;;;;;;;;;;8.62;77.81;101582.84;4996343;28;20004;-76
2022/09/22 00:30:14;;;;;;;;;;;;;;;8.65;77.66;101581.88;4996255;28;20009;-76
2022/09/22 00:33:18;;;;;;;;;;;;;;;8.83;76.31;101573.53;4996256;28;20287;-76
2022/09/22 00:36:24;;;;;;;;;;;;;;;8.64;76.84;101580.16;4996418;28;19967;-76
2022/09/22 00:39:29;;;;;;;;;;;;;;;8.50;78.58;101575.34;4984387;28;19936;-76
2022/09/22 00:42:33;;;;;;;;;;;;;;;8.49;77.90;101571.88;4996005;28;20000;-76
2022/09/22 00:45:36;;;;;;;;;;;;;;;8.44;78.14;101578.97;4996297;28;19976;-76
2022/09/22 00:48:44;;;;;;;;;;;;;;;8.47;78.22;101578.03;4995798;28;20340;-76
2022/09/22 00:51:47;;;;;;;;;;;;;;;8.35;78.55;101573.94;4996024;28;19921;-76
2022/09/22 00:54:55;;;;;;;;;;;;;;;8.19;79.14;101559.63;4984101;28;19921;-76
2022/09/22 00:57:59;;;;;;;;;;;;;;;7.97;79.56;101567.97;4995707;28;19928;-76
2022/09/22 01:01:03;;;;;;;;;;;;;;;8.06;79.94;101561.69;4995841;28;20415;-76
2022/09/22 01:04:06;;;;;;;;;;;;;;;8.04;79.67;101571.25;4995414;28;20340;-77
2022/09/22 01:07:11;;;;;;;;;;;;;;;8.09;79.83;101565.06;4995582;28;20118;-76
2022/09/22 01:10:15;;;;;;;;;;;;;;;8.15;79.54;101562.28;4994715;28;20400;-76
2022/09/22 01:13:21;;;;;;;;;;;;;;;8.40;78.56;101563.44;4994970;28;19940;-76
2022/09/22 01:16:35;;;;;;;;;;;;;;;8.54;78.23;101562.16;4983060;28;20308;-76
2022/09/22 01:19:38;;;;;;;;;;;;;;;8.26;79.25;101555.94;4995284;28;20007;-76
2022/09/22 01:23:00;;;;;;;;;;;;;;;8.20;79.04;101558.72;4995376;28;20380;-76
2022/09/22 01:26:03;;;;;;;;;;;;;;;8.06;79.40;101557.31;4994784;28;20446;-76
2022/09/22 01:29:13;;;;;;;;;;;;;;;8.29;78.63;101559.31;4994446;28;20280;-76
2022/09/22 01:32:21;;;;;;;;;;;;;;;8.25;78.16;101560.31;4993978;28;19920;-76
2022/09/22 01:35:30;;;;;;;;;;;;;;;8.06;79.19;101549.50;4995246;28;19921;-76
2022/09/22 01:38:33;;;;;;;;;;;;;;;8.10;78.34;101555.47;4994994;28;19924;-76
2022/09/22 01:41:37;;;;;;;;;;;;;;;8.12;78.25;101551.94;4995100;28;19921;-76
2022/09/22 01:45:03;;;;;;;;;;;;;;;8.04;78.19;101561.72;4995015;28;19929;-76
2022/09/22 01:48:07;;;;;;;;;;;;;;;8.27;77.59;101560.28;4994830;28;20007;-76
2022/09/22 01:51:17;;;;;;;;;;;;;;;8.27;77.22;101555.06;4994974;28;19960;-76
2022/09/22 01:54:44;;;;;;;;;;;;;;;8.00;77.88;101565.28;4994716;28;19963;-76
2022/09/22 01:57:53;;;;;;;;;;;;;;;7.90;78.46;101566.41;4994590;28;19925;-76
2022/09/22 02:00:59;;;;;;;;;;;;;;;8.09;77.19;101565.06;4994642;28;19921;-76
2022/09/22 02:04:06;;;;;;;;;;;;;;;7.90;77.88;101563.81;4994547;28;19920;-77
2022/09/22 02:07:13;;;;;;;;;;;;;;;7.94;77.97;101565.44;4994466;28;20316;-77
2022/09/22 02:10:17;;;;;;;;;;;;;;;7.99;77.70;101560.13;4994445;28;20048;-77
2022/09/22 02:13:20;;;;;;;;;;;;;;;7.98;77.93;101556.66;4994418;28;20292;-77
2022/09/22 02:16:24;;;;;;;;;;;;;;;8.01;77.58;101545.28;4994141;28;19968;-77
2022/09/22 02:19:30;;;;;;;;;;;;;;;7.98;77.61;101550.63;4994294;28;19920;-77
2022/09/22 02:22:33;;;;;;;;;;;;;;;7.86;77.84;101546.56;4993236;28;20273;-77
2022/09/22 02:25:37;;;;;;;;;;;;;;;7.81;78.01;101551.00;4994168;28;19968;-77
2022/09/22 02:28:42;;;;;;;;;;;;;;;7.78;77.57;101548.47;4994051;28;20387;-77
2022/09/22 02:31:45;;;;;;;;;;;;;;;7.83;77.26;101541.41;4981999;28;19921;-77
2022/09/22 02:34:49;;;;;;;;;;;;;;;7.78;77.12;101538.91;4993986;28;19919;-77
2022/09/22 02:38:11;;;;;;;;;;;;;;;7.67;77.25;101540.94;4993821;28;19924;-77
2022/09/22 02:41:14;;;;;;;;;;;;;;;7.68;76.75;101535.69;4993636;28;20291;-77
2022/09/22 02:44:22;;;;;;;;;;;;;;;7.63;76.99;101534.94;4994301;28;20281;-77
2022/09/22 02:47:31;;;;;;;;;;;;;;;7.57;77.05;101529.03;4994594;28;19920;-77
2022/09/22 02:50:34;;;;;;;;;;;;;;;7.66;76.89;101528.81;4993398;28;19967;-77
2022/09/22 02:53:38;;;;;;;;;;;;;;;7.49;77.61;101528.34;4993425;28;19987;-77
2022/09/22 02:56:41;;;;;;;;;;;;;;;7.69;76.98;101529.59;4981460;28;19925;-77
2022/09/22 02:59:45;;;;;;;;;;;;;;;7.70;77.20;101525.25;4993536;28;19920;-77
2022/09/22 03:02:48;;;;;;;;;;;;;;;7.73;76.37;101527.78;4993957;28;19921;-77
2022/09/22 03:05:51;;;;;;;;;;;;;;;7.51;77.48;101527.44;4993563;28;19920;-77
2022/09/22 03:08:55;;;;;;;;;;;;;;;7.64;77.13;101518.44;4981504;28;19925;-77
2022/09/22 03:11:58;;;;;;;;;;;;;;;7.64;76.71;101520.19;4993469;28;19921;-77
2022/09/22 03:15:02;;;;;;;;;;;;;;;7.61;76.94;101515.91;4993470;28;19920;-77
2022/09/22 03:18:05;;;;;;;;;;;;;;;7.73;76.66;101519.13;4993505;28;20016;-77
2022/09/22 03:21:08;;;;;;;;;;;;;;;7.53;76.77;101520.44;4993630;28;20257;-77
2022/09/22 03:24:12;;;;;;;;;;;;;;;7.55;76.43;101518.66;4993673;28;19919;-77
2022/09/22 03:27:15;;;;;;;;;;;;;;;7.58;76.45;101518.56;4993114;28;19920;-77
2022/09/22 03:30:18;;;;;;;;;;;;;;;7.51;76.90;101511.81;4993264;28;20012;-77
2022/09/22 03:33:22;;;;;;;;;;;;;;;7.39;76.91;101510.34;4993149;28;19952;-77
2022/09/22 03:36:25;;;;;;;;;;;;;;;7.24;77.49;101510.69;4993321;28;19920;-77
2022/09/22 03:39:28;;;;;;;;;;;;;;;7.19;77.32;101505.59;4992886;28;20344;-76
2022/09/22 03:42:35;;;;;;;;;;;;;;;7.18;77.12;101508.25;4992808;28;19920;-77
2022/09/22 03:45:38;;;;;;;;;;;;;;;7.08;76.75;101510.19;4993328;28;19921;-77
2022/09/22 03:48:42;;;;;;;;;;;;;;;6.78;77.47;101516.06;4993266;28;20009;-77
2022/09/22 03:51:46;;;;;;;;;;;;;;;6.96;77.31;101513.91;4993163;28;19968;-77
2022/09/22 03:54:50;;;;;;;;;;;;;;;7.16;76.14;101503.06;4992905;28;20277;-77
2022/09/22 03:57:54;;;;;;;;;;;;;;;7.05;76.20;101504.19;4992149;28;20396;-77
2022/09/22 04:00:57;;;;;;;;;;;;;;;7.01;76.31;101508.59;4993296;28;19921;-77
2022/09/22 04:04:01;;;;;;;;;;;;;;;7.02;76.07;101504.25;4992718;28;19924;-77
2022/09/22 04:07:06;;;;;;;;;;;;;;;6.91;76.51;101504.50;4992858;28;19924;-77
2022/09/22 04:10:11;;;;;;;;;;;;;;;6.75;77.01;101509.16;4993366;28;20020;-77
2022/09/22 04:13:16;;;;;;;;;;;;;;;6.97;76.13;101500.03;4992872;28;19921;-77
2022/09/22 04:16:20;;;;;;;;;;;;;;;6.87;75.81;101498.50;4992545;28;20363;-77
2022/09/22 04:19:24;;;;;;;;;;;;;;;7.18;74.62;101500.44;4980539;28;19921;-77
2022/09/22 04:22:31;;;;;;;;;;;;;;;6.94;75.30;101496.63;4975495;28;20009;-77
2022/09/22 04:25:36;;;;;;;;;;;;;;;6.79;75.02;101499.56;4950730;28;19920;-77
2022/09/22 04:28:42;;;;;;;;;;;;;;;6.86;75.02;101508.94;4950095;28;20065;-77
2022/09/22 04:31:47;;;;;;;;;;;;;;;6.68;76.48;101515.38;4986995;28;19920;-77
2022/09/22 04:34:53;;;;;;;;;;;;;;;6.74;75.30;101512.66;4987576;28;19920;-77
2022/09/22 04:37:59;;;;;;;;;;;;;;;6.59;76.23;101508.63;4973926;28;19944;-76
2022/09/22 04:41:04;;;;;;;;;;;;;;;6.65;75.84;101511.09;4986231;28;20044;-76
2022/09/22 04:44:07;;;;;;;;;;;;;;;6.75;75.52;101509.16;4987848;28;19917;-77
2022/09/22 04:47:11;;;;;;;;;;;;;;;6.53;76.34;101500.94;4990338;28;19920;-76
2022/09/22 04:50:14;;;;;;;;;;;;;;;6.69;75.38;101504.09;4988559;28;20072;-76
2022/09/22 04:53:18;;;;;;;;;;;;;;;6.58;76.14;101495.66;4990171;28;19924;-77
2022/09/22 04:56:21;;;;;;;;;;;;;;;6.79;75.38;101502.16;4988241;28;19944;-77
2022/09/22 04:59:25;;;;;;;;;;;;;;;6.64;76.05;101504.19;4976528;28;20296;-77
2022/09/22 05:02:28;;;;;;;;;;;;;;;6.65;75.62;101500.69;4989336;28;20017;-77
2022/09/22 05:05:32;;;;;;;;;;;;;;;6.56;75.49;101500.88;4983196;28;19921;-77
2022/09/22 05:08:36;;;;;;;;;;;;;;;6.49;76.34;101509.69;4966915;28;19941;-77
2022/09/22 05:11:39;;;;;;;;;;;;;;;6.63;75.80;101510.25;4952993;28;19921;-77
2022/09/22 05:14:43;;;;;;;;;;;;;;;6.59;76.15;101508.63;4952951;28;20055;-77
2022/09/22 05:17:47;;;;;;;;;;;;;;;6.56;76.37;101511.28;4951957;28;20393;-78
2022/09/22 05:20:50;;;;;;;;;;;;;;;6.60;76.56;101512.06;4976036;28;19980;-77
2022/09/22 05:23:54;;;;;;;;;;;;;;;6.54;76.15;101518.28;4991659;28;19921;-78
2022/09/22 05:26:58;;;;;;;;;;;;;;;6.63;76.19;101518.06;4991642;28;19925;-77
2022/09/22 05:30:01;;;;;;;;;;;;;;;6.64;76.54;101524.13;4991403;28;20031;-78
2022/09/22 05:33:04;;;;;;;;;;;;;;;6.65;76.86;101525.84;4972025;28;20141;-78
2022/09/22 05:36:09;;;;;;;;;;;;;;;6.53;77.12;101521.72;4990336;28;20331;-78
2022/09/22 05:39:14;;;;;;;;;;;;;;;6.53;77.45;101521.72;4990599;28;20325;-78
2022/09/22 05:42:19;;;;;;;;;;;;;;;6.62;77.11;101524.16;4976072;28;20349;-78
2022/09/22 05:45:23;;;;;;;;;;;;;;;6.72;76.70;101530.88;4971290;28;19964;-78
2022/09/22 05:48:54;;;;;;;;;;;;;;;6.77;78.01;101530.78;4983052;28;20025;-78
2022/09/22 05:51:58;;;;;;;;;;;;;;;6.70;77.78;101530.06;4990691;28;19921;-78
2022/09/22 05:55:02;;;;;;;;;;;;;;;6.58;78.22;101535.50;4990066;28;20307;-78
2022/09/22 05:58:08;;;;;;;;;;;;;;;6.65;78.35;101523.25;4989838;28;20016;-78
2022/09/22 06:01:11;;;;;;;;;;;;;;;6.75;77.62;101532.56;4990173;28;19924;-78
2022/09/22 06:04:16;;;;;;;;;;;;;;;6.74;77.93;101531.72;4990384;28;19972;-78
2022/09/22 06:07:21;;;;;;;;;;;;;;;6.78;78.59;101527.31;4985754;28;20015;-79
2022/09/22 06:10:24;;;;;;;;;;;;;;;6.86;77.74;101534.94;4971187;28;19964;-79
2022/09/22 06:13:28;;;;;;;;;;;;;;;6.75;78.72;101530.81;4970755;28;19973;-79
2022/09/22 06:16:31;;;;;;;;;;;;;;;6.79;77.25;101530.75;4973839;28;20467;-79
2022/09/22 06:19:35;;;;;;;;;;;;;;;6.89;77.72;101529.66;4979100;28;19961;-79
2022/09/22 06:22:39;;;;;;;;;;;;;;;6.82;77.90;101534.13;4970129;28;20338;-78
2022/09/22 06:25:44;;;;;;;;;;;;;;;6.83;78.25;101535.88;4970272;28;19965;-78
2022/09/22 06:28:47;;;;;;;;;;;;;;;6.83;77.71;101537.59;4970618;28;19992;-78
2022/09/22 06:31:51;;;;;;;;;;;;;;;6.81;78.03;101529.84;4982600;28;20060;-78
2022/09/22 06:34:56;;;;;;;;;;;;;;;6.71;78.75;101534.38;4989504;28;20383;-81
2022/09/22 06:38:00;;;;;;;;;;;;;;;6.54;81.90;101531.25;4971464;28;20017;-77
2022/09/22 06:41:05;;;;;;;;;;;;;;;6.97;79.13;101525.16;4969697;28;20106;-77
2022/09/22 06:44:11;;;;;;;;;;;;;;;6.71;79.20;101526.56;4970217;28;19968;-78
2022/09/22 06:47:14;;;;;;;;;;;;;;;6.75;80.06;101527.34;4950660;28;19937;-77
2022/09/22 06:50:18;;;;;;;;;;;;;;;6.85;80.04;101533.22;4968914;28;19956;-77
2022/09/22 06:53:23;;;;;;;;;;;;;;;6.89;78.09;101533.16;4970117;28;19924;-77
2022/09/22 06:56:28;;;;;;;;;;;;;;;7.13;78.48;101523.94;4969978;28;19925;-77
2022/09/22 06:59:32;;;;;;;;;;;;;;;6.88;79.65;101522.75;4961637;28;19921;-78
2022/09/22 07:02:35;;;;;;;;;;;;;;;7.01;79.00;101519.00;4984566;28;19921;-78
2022/09/22 07:05:38;;;;;;;;;;;;;;;6.83;79.44;101527.19;4969497;28;20420;-78
2022/09/22 07:08:42;;;;;;;;;;;;;;;6.73;79.59;101518.72;4968198;28;19973;-77
2022/09/22 07:11:47;;;;;;;;;;;;;;;6.96;79.27;101520.88;4969198;28;19975;-77
2022/09/22 07:14:52;;;;;;;;;;;;;;;6.90;79.79;101514.06;4982430;28;20021;-78
2022/09/22 07:17:55;;;;;;;;;;;;;;;7.20;78.48;101509.06;4970026;28;20477;-77
2022/09/22 07:21:02;;;;;;;;;;;;;;;7.12;79.09;101517.03;4968482;28;19921;-79
2022/09/22 07:24:07;;;;;;;;;;;;;;;7.04;79.57;101513.75;4973757;28;20431;-79
2022/09/22 07:27:13;;;;;;;;;;;;;;;7.01;80.36;101512.97;4980334;28;19925;-79
2022/09/22 07:30:16;;;;;;;;;;;;;;;7.06;79.72;101516.31;4987456;28;20047;-79
2022/09/22 07:33:20;;;;;;;;;;;;;;;6.96;80.81;101523.47;4988838;28;20379;-79
2022/09/22 07:36:24;;;;;;;;;;;;;;;7.13;80.86;101523.94;4987642;28;20459;-79
2022/09/22 07:39:27;;;;;;;;;;;;;;;7.28;80.69;101511.50;4981103;28;19941;-79
2022/09/22 07:42:31;;;;;;;;;;;;;;;7.50;79.54;101517.91;4983389;28;19983;-79
2022/09/22 07:45:34;;;;;;;;;;;;;;;7.48;79.23;101514.50;4989901;28;19968;-79
2022/09/22 07:48:45;;;;;;;;;;;;;;;7.69;78.54;101524.41;4990292;28;20364;-79
2022/09/22 07:51:48;;;;;;;;;;;;;;;7.71;78.86;101520.88;4989657;28;19920;-78
2022/09/22 07:54:56;;;;;;;;;;;;;;;7.79;78.89;101516.38;4990149;28;19940;-79
2022/09/22 07:58:03;;;;;;;;;;;;;;;7.96;78.14;101521.13;4952174;28;19925;-78
2022/09/22 08:01:09;;;;;;;;;;;;;;;7.78;79.00;101512.88;4952496;28;20338;-78
2022/09/22 08:04:17;;;;;;;;;;;;;;;7.91;79.24;101513.41;4974137;28;19921;-79
2022/09/22 08:07:20;;;;;;;;;;;;;;;8.02;78.84;101511.41;4988156;28;20469;-79
2022/09/22 08:10:25;;;;;;;;;;;;;;;8.02;79.13;101513.16;4967133;28;19924;-79
2022/09/22 08:13:29;;;;;;;;;;;;;;;8.00;79.11;101513.19;4987837;28;19924;-79
2022/09/22 08:16:37;;;;;;;;;;;;;;;7.90;80.56;101509.13;4987472;28;19924;-79
2022/09/22 08:19:41;;;;;;;;;;;;;;;8.04;80.23;101507.03;4988128;28;19924;-79
2022/09/22 08:22:50;;;;;;;;;;;;;;;8.16;80.37;101506.69;4992608;28;19935;-79
2022/09/22 08:26:04;;;;;;;;;;;;;;;8.11;80.96;101502.50;4996559;28;19946;-79
2022/09/22 08:29:07;;;;;;;;;;;;;;;8.15;81.50;101497.16;4994671;28;19964;-78
2022/09/22 08:32:11;;;;;;;;;;;;;;;8.22;81.79;101491.78;4972217;28;21032;-79
2022/09/22 08:35:14;;;;;;;;;;;;;;;8.27;82.96;101489.94;4971468;28;19921;-78
2022/09/22 08:38:18;;;;;;;;;;;;;;;8.47;82.20;101486.81;4961665;28;19930;-79
2022/09/22 08:41:30;;;;;;;;;;;;;;;8.60;82.95;101499.44;4990290;28;20025;-79
2022/09/22 08:44:52;;;;;;;;;;;;;;;8.77;82.24;101493.72;4990974;28;19936;-79
2022/09/22 08:54:51;;;;;;;;;;;;;;;9.28;81.24;101489.59;4952158;28;19973;-79
2022/09/22 08:58:17;;;;;;;;;;;;;;;9.42;81.13;101484.78;4944755;29;20381;-79
2022/09/22 09:01:41;;;;;;;;;;;;;;;9.55;81.11;101474.81;4957152;29;20505;-78
2022/09/22 09:04:47;;;;;;;;;;;;;;;9.69;80.38;101482.19;4956616;29;19921;-79
2022/09/22 09:08:00;;;;;;;;;;;;;;;9.82;79.53;101483.47;4956270;29;20058;-79
2022/09/22 09:11:06;;;;;;;;;;;;;;;10.02;79.37;101483.66;4944630;29;20293;-77
2022/09/22 09:14:18;;;;;;;;;;;;;;;10.18;79.41;101483.97;4955955;29;19952;-78
2022/09/22 09:17:29;;;;;;;;;;;;;;;10.30;78.23;101474.00;4955787;29;19927;-78
2022/09/22 09:20:37;;;;;;;;;;;;;;;10.45;77.84;101474.31;4944399;29;19941;-77
2022/09/22 09:23:46;;;;;;;;;;;;;;;10.49;77.51;101467.19;4956302;28;19921;-77
2022/09/22 09:26:51;;;;;;;;;;;;;;;10.54;77.64;101473.13;4957405;29;19941;-78
2022/09/22 09:29:59;;;;;;;;;;;;;;;10.63;78.35;101461.47;4959483;29;19920;-78
2022/09/22 09:33:10;;;;;;;;;;;;;;;10.73;77.58;101459.38;4957388;29;20444;-77
2022/09/22 09:36:14;;;;;;;;;;;;;;;10.78;78.15;101455.63;4956174;29;19921;-77
2022/09/22 09:39:30;;;;;;;;;;;;;;;10.87;77.74;101449.22;4954988;29;19945;-77
2022/09/22 09:42:35;;;;;;;;;;;;;;;11.00;77.90;101447.81;4955648;29;19921;-78
2022/09/22 09:45:41;;;;;;;;;;;;;;;11.10;78.21;101446.56;4955169;29;19933;-77
2022/09/22 09:49:09;;;;;;;;;;;;;;;11.18;77.34;101438.38;4956192;29;19922;-77
2022/09/22 09:52:13;;;;;;;;;;;;;;;11.26;77.24;101441.53;4956484;29;20326;-77
2022/09/22 09:55:24;;;;;;;;;;;;;;;11.40;77.03;101433.97;4955939;29;19977;-77
2022/09/22 10:01:52;;;;;;;;;;;;;;;11.58;74.33;101426.25;4954908;29;19921;-77
2022/09/22 10:05:00;;;;;;;;;;;;;;;11.68;74.68;101422.38;4955859;29;19922;-77
2022/09/22 10:08:14;;;;;;;;;;;;;;;11.79;73.22;101417.50;4955754;29;19924;-78
2022/09/22 10:11:31;;;;;;;;;;;;;;;11.97;73.92;101412.44;4955705;29;20289;-78
2022/09/22 10:14:34;;;;;;;;;;;;;;;12.03;71.78;101401.66;4943974;29;20380;-78
2022/09/22 10:17:39;;;;;;;;;;;;;;;12.06;73.11;101404.13;4943821;29;19925;-77
2022/09/22 10:20:42;;;;;;;;;;;;;;;12.19;73.53;101399.19;4955805;29;19920;-77
2022/09/22 10:23:48;;;;;;;;;;;;;;;12.28;72.31;101396.16;4955799;29;20015;-77
2022/09/22 10:26:54;;;;;;;;;;;;;;;12.29;71.38;101397.88;4955476;29;19921;-77
2022/09/22 10:30:10;;;;;;;;;;;;;;;12.40;72.18;101379.84;4955317;29;19921;-78
2022/09/22 10:33:13;;;;;;;;;;;;;;;12.49;71.37;101379.44;4974855;28;20320;-77
2022/09/22 10:36:17;;;;;;;;;;;;;;;12.50;70.68;101373.25;4974691;28;19960;-78
2022/09/22 10:39:25;;;;;;;;;;;;;;;12.66;69.83;101368.13;4974844;28;19944;-77
2022/09/22 10:42:39;;;;;;;;;;;;;;;12.69;71.12;101364.53;4982170;28;19941;-78
2022/09/22 10:45:49;;;;;;;;;;;;;;;12.82;70.02;101359.53;4974164;28;19921;-77
2022/09/22 10:49:11;;;;;;;;;;;;;;;12.88;70.19;101354.00;4974366;28;20001;-77
2022/09/22 10:52:27;;;;;;;;;;;;;;;13.09;71.17;101345.06;4974098;28;19921;-78
2022/09/22 10:55:44;;;;;;;;;;;;;;;13.30;69.68;101345.78;4973954;28;19921;-77
2022/09/22 10:59:19;;;;;;;;;;;;;;;13.35;69.09;101335.91;4973897;28;19925;-77
2022/09/22 11:02:24;;;;;;;;;;;;;;;13.39;69.98;101331.34;4962235;28;19941;-77
2022/09/22 11:12:32;;;;;;;;;;;;;;;13.80;67.20;101323.94;4962024;28;19921;-77
2022/09/22 11:15:53;;;;;;;;;;;;;;;13.92;65.52;101319.81;4974515;28;19921;-78
2022/09/22 11:19:08;;;;;;;;;;;;;;;13.94;64.11;101320.56;4974593;28;19925;-77
2022/09/22 11:22:34;;;;;;;;;;;;;;;13.90;64.00;101308.53;4973898;28;19969;-78
2022/09/22 11:25:56;;;;;;;;;;;;;;;13.89;60.63;101310.31;4973702;28;20374;-78
2022/09/22 11:28:59;;;;;;;;;;;;;;;13.89;63.44;101307.69;4973744;28;19940;-78
2022/09/22 11:32:05;;;;;;;;;;;;;;;13.87;61.75;101308.69;4973899;28;19921;-78
2022/09/22 11:35:38;;;;;;;;;;;;;;;13.93;62.11;101297.84;4974021;28;20388;-78
2022/09/22 11:38:53;;;;;;;;;;;;;;;14.23;62.77;101295.34;4973777;28;20448;-78
2022/09/22 11:42:12;;;;;;;;;;;;;;;14.18;62.20;101287.69;4973609;28;19961;-77
2022/09/22 11:45:19;;;;;;;;;;;;;;;14.23;63.30;101289.19;4973448;28;19921;-78
2022/09/22 11:48:25;;;;;;;;;;;;;;;14.32;62.20;101279.00;4973181;28;19922;-78
2022/09/22 11:51:43;;;;;;;;;;;;;;;14.42;62.83;101287.25;4973013;28;19921;-78
2022/09/22 11:55:10;;;;;;;;;;;;;;;14.68;62.36;101280.56;4974292;28;19960;-78
2022/09/22 11:58:18;;;;;;;;;;;;;;;14.74;57.46;101268.81;4977540;28;19925;-78
2022/09/22 12:01:27;;;;;;;;;;;;;;;14.75;56.11;101260.00;4977775;28;19937;-78
2022/09/22 12:04:36;;;;;;;;;;;;;;;14.92;57.08;101262.47;4977859;28;19968;-78
2022/09/22 12:07:52;;;;;;;;;;;;;;;14.83;54.66;101249.84;4977172;28;19949;-77
2022/09/22 12:10:55;;;;;;;;;;;;;;;15.07;51.96;101256.31;4977384;28;19921;-78
2022/09/22 12:13:59;;;;;;;;;;;;;;;15.45;50.86;101244.41;4977620;28;19936;-78
2022/09/22 12:17:32;;;;;;;;;;;;;;;15.52;51.56;101250.97;4977338;28;20332;-78
2022/09/22 12:20:35;;;;;;;;;;;;;;;15.86;50.78;101246.25;4976969;28;19964;-77
2022/09/22 12:23:40;;;;;;;;;;;;;;;15.82;51.22;101245.63;4976703;28;19959;-77
2022/09/22 12:26:45;;;;;;;;;;;;;;;16.18;48.20;101241.59;4975808;28;19941;-77
2022/09/22 12:29:54;;;;;;;;;;;;;;;16.48;48.93;101236.13;4977946;28;19921;-77
2022/09/22 12:32:57;;;;;;;;;;;;;;;16.74;47.69;101232.59;4977992;28;20012;-78
2022/09/22 12:36:02;;;;;;;;;;;;;;;17.30;47.40;101224.44;4976812;28;19925;-78
2022/09/22 12:39:29;;;;;;;;;;;;;;;18.71;43.64;101222.19;4976563;28;19956;-78
2022/09/22 12:42:35;;;;;;;;;;;;;;;18.44;40.33;101214.53;4977394;28;19956;-78
2022/09/22 12:45:41;;;;;;;;;;;;;;;24.68;32.16;101202.50;4977815;28;19920;-77
2022/09/22 12:48:45;;;;;;;;;;;;;;;30.64;21.68;101192.69;4977357;28;19936;-78
2022/09/22 12:51:49;;;;;;;;;;;;;;;31.22;19.74;101187.91;4976522;28;20384;-79
2022/09/22 12:55:11;;;;;;;;;;;;;;;35.38;16.34;101176.97;4976560;28;19952;-79
2022/09/22 12:58:17;;;;;;;;;;;;;;;35.65;16.24;101175.81;4976955;28;20329;-78
2022/09/22 13:01:31;;;;;;;;;;;;;;;28.96;21.66;101180.16;4985418;28;19924;-78
2022/09/22 13:04:34;;;;;;;;;;;;;;;33.06;18.76;101167.84;4983498;28;19928;-78
2022/09/22 13:07:44;;;;;;;;;;;;;;;32.96;17.17;101168.25;4975514;28;20008;-79
2022/09/22 13:10:52;;;;;;;;;;;;;;;37.19;14.72;101152.03;4977045;28;20348;-78
2022/09/22 13:13:55;;;;;;;;;;;;;;;38.18;12.84;101145.41;4977057;28;20328;-78
2022/09/22 13:17:19;;;;;;;;;;;;;;;38.30;13.13;101137.97;4976257;28;19921;-78
2022/09/22 13:20:31;;;;;;;;;;;;;;;39.29;12.09;101144.53;4964091;28;20391;-77
2022/09/22 13:23:34;;;;;;;;;;;;;;;34.02;14.85;101135.25;4957083;29;20289;-77
2022/09/22 13:26:39;;;;;;;;;;;;;;;32.72;16.34;101141.84;4956645;28;20381;-78
2022/09/22 13:29:55;;;;;;;;;;;;;;;32.75;17.03;101142.25;4956876;29;19925;-77
2022/09/22 13:32:58;;;;;;;;;;;;;;;32.33;16.90;101143.53;4957796;29;20302;-77
2022/09/22 13:36:05;;;;;;;;;;;;;;;26.56;22.37;101141.56;4956788;28;19921;-77
2022/09/22 13:39:12;;;;;;;;;;;;;;;23.81;25.45;101150.59;4956624;28;19925;-77
2022/09/22 13:42:15;;;;;;;;;;;;;;;23.55;27.32;101138.94;4957816;29;19922;-77
2022/09/22 13:45:22;;;;;;;;;;;;;;;23.61;29.03;101133.81;4957170;29;19921;-77
2022/09/22 13:48:28;;;;;;;;;;;;;;;24.11;27.67;101135.16;4955938;29;19957;-80
2022/09/22 13:51:32;;;;;;;;;;;;;;;29.33;21.41;101127.25;4955865;29;19921;-80
2022/09/22 13:54:35;;;;;;;;;;;;;;;33.14;15.96;101110.69;4956053;29;20341;-80
2022/09/22 13:57:40;;;;;;;;;;;;;;;33.31;15.09;101105.59;4956572;29;20065;-80
2022/09/22 14:00:51;;;;;;;;;;;;;;;35.61;14.41;101105.56;4956464;29;19925;-80
2022/09/22 14:03:54;;;;;;;;;;;;;;;34.22;16.06;101102.53;4956314;29;19949;-78
2022/09/22 14:07:01;;;;;;;;;;;;;;;35.90;14.55;101099.47;4955639;29;19925;-78
2022/09/22 14:10:08;;;;;;;;;;;;;;;34.28;16.59;101091.84;4955674;29;19920;-79
2022/09/22 14:13:30;;;;;;;;;;;;;;;33.31;15.32;101098.31;4956144;29;20438;-79
2022/09/22 14:16:55;;;;;;;;;;;;;;;31.99;16.98;101093.97;4956005;29;20354;-78
2022/09/22 14:20:08;;;;;;;;;;;;;;;27.51;21.99;101095.97;4955680;29;20329;-78
2022/09/22 14:23:26;;;;;;;;;;;;;;;25.32;24.49;101097.84;4955736;29;19921;-77
2022/09/22 14:26:43;;;;;;;;;;;;;;;24.19;26.61;101102.34;4955593;29;20009;-77
2022/09/22 14:29:48;;;;;;;;;;;;;;;23.34;30.98;101094.63;4954724;29;19937;-78
2022/09/22 14:32:51;;;;;;;;;;;;;;;22.59;30.68;101092.94;4955380;29;20456;-78
2022/09/22 14:36:05;;;;;;;;;;;;;;;22.56;29.92;101093.25;4955662;29;20281;-77
2022/09/22 14:39:17;;;;;;;;;;;;;;;22.83;31.61;101090.66;4955337;28;19929;-77
2022/09/22 14:42:27;;;;;;;;;;;;;;;22.68;29.23;101086.75;4955512;29;19922;-77
2022/09/22 14:45:31;;;;;;;;;;;;;;;21.82;28.61;101092.03;4955269;29;19960;-77
2022/09/22 14:48:35;;;;;;;;;;;;;;;21.61;30.00;101086.00;4954995;29;19922;-77
2022/09/22 14:51:44;;;;;;;;;;;;;;;21.54;33.56;101083.88;4955076;29;19985;-77
2022/09/22 14:54:48;;;;;;;;;;;;;;;21.71;29.72;101081.53;4955589;29;19921;-77
2022/09/22 14:57:51;;;;;;;;;;;;;;;21.43;33.44;101078.66;4955059;29;19925;-77
2022/09/22 15:04:21;;;;;;;;;;;;;;;21.02;36.73;101076.97;4954692;29;20289;-77
2022/09/22 15:07:28;;;;;;;;;;;;;;;20.97;35.02;101071.25;4954805;29;19929;-77
2022/09/22 15:10:32;;;;;;;;;;;;;;;20.94;38.10;101063.53;4958318;29;20213;-77
2022/09/22 15:13:38;;;;;;;;;;;;;;;20.90;36.15;101061.16;4964740;29;19921;-77
2022/09/22 15:16:44;;;;;;;;;;;;;;;20.89;30.61;101053.28;4973991;29;19930;-77
2022/09/22 15:19:55;;;;;;;;;;;;;;;20.62;36.10;101068.00;4957555;29;19928;-77
2022/09/22 15:22:58;;;;;;;;;;;;;;;20.25;38.19;101064.13;4957769;29;19921;-76
2022/09/22 15:26:02;;;;;;;;;;;;;;;20.02;40.36;101058.94;4954584;29;20005;-77
2022/09/22 15:29:05;;;;;;;;;;;;;;;19.64;41.08;101065.59;4954163;28;20012;-77
2022/09/22 15:32:10;;;;;;;;;;;;;;;19.41;42.55;101066.59;4954352;29;19961;-77
2022/09/22 15:35:17;;;;;;;;;;;;;;;19.42;42.77;101062.97;4954644;29;19937;-77
2022/09/22 15:38:22;;;;;;;;;;;;;;;19.58;42.69;101063.41;4956818;28;19945;-78
2022/09/22 15:41:27;;;;;;;;;;;;;;;19.35;42.59;101064.44;4944299;29;19922;-80
2022/09/22 15:44:31;;;;;;;;;;;;;;;19.18;43.92;101053.38;4955865;29;19960;-79
2022/09/22 15:47:35;;;;;;;;;;;;;;;19.37;43.71;101052.75;4954971;29;19921;-79
2022/09/22 15:50:38;;;;;;;;;;;;;;;19.44;40.55;101053.09;4955211;29;19921;-78
2022/09/22 15:53:41;;;;;;;;;;;;;;;18.93;45.57;101048.34;4955541;29;19922;-78
2022/09/22 15:56:49;;;;;;;;;;;;;;;19.14;43.92;101053.72;4955037;29;19969;-78
2022/09/22 15:59:52;;;;;;;;;;;;;;;18.57;45.93;101047.59;4955452;29;19972;-79
2022/09/22 16:02:55;;;;;;;;;;;;;;;18.54;44.17;101050.47;4954170;29;19926;-78
2022/09/22 16:06:02;;;;;;;;;;;;;;;18.56;46.01;101041.44;4994902;28;19936;-78
2022/09/22 16:09:05;;;;;;;;;;;;;;;18.37;46.11;101046.47;4994451;28;20056;-78
2022/09/22 16:12:11;;;;;;;;;;;;;;;18.15;47.54;101036.66;4995186;28;19920;-77
2022/09/22 16:15:15;;;;;;;;;;;;;;;18.02;48.24;101035.91;4994017;28;19920;-77
2022/09/22 16:18:18;;;;;;;;;;;;;;;18.07;47.91;101049.66;4995952;28;19924;-77
2022/09/22 16:21:24;;;;;;;;;;;;;;;17.74;49.89;101037.97;4996871;28;19920;-77
2022/09/22 16:24:28;;;;;;;;;;;;;;;18.12;47.88;101043.06;4992887;28;20025;-78
2022/09/22 16:27:31;;;;;;;;;;;;;;;17.73;49.62;101036.25;4992786;28;20009;-78
2022/09/22 16:30:34;;;;;;;;;;;;;;;17.33;51.18;101047.13;4992857;28;19968;-78